Time,TemperatureF,DewpointF,PressureIn,WindDirection,WindDirectionDegrees,WindSpeedMPH,WindSpeedGustMPH,Humidity,HourlyPrecipIn,Conditions,Clouds,dailyrainin,SoftwareType,DateUTC
2013-01-07 00:00:00,42.6,22.2,30.27,West,270,2.7,3.1,44,0.00,,---,0.00,VWS V14.01,2013-01-07 05:00:00,
2013-01-07 00:01:00,42.6,22.2,30.27,WNW,292,2.0,2.7,44,0.00,,---,0.00,VWS V14.01,2013-01-07 05:01:00,
2013-01-07 00:06:00,42.8,21.9,30.27,SSE,158,1.1,1.1,43,0.00,,---,0.00,VWS V14.01,2013-01-07 05:06:00,
2013-01-07 00:11:00,43.0,22.6,30.27,South,180,1.3,1.3,44,0.00,,---,0.00,VWS V14.01,2013-01-07 05:11:00,
2013-01-07 00:16:00,42.8,22.4,30.27,WSW,248,0.9,1.1,44,0.00,,---,0.00,VWS V14.01,2013-01-07 05:16:00,
2013-01-07 00:21:00,43.2,22.2,30.27,NNW,338,1.1,2.0,43,0.00,,---,0.00,VWS V14.01,2013-01-07 05:21:00,
2013-01-07 00:26:00,43.2,22.7,30.27,WSW,248,0.0,0.9,44,0.00,,---,0.00,VWS V14.01,2013-01-07 05:26:00,
2013-01-07 00:31:00,43.3,22.4,30.27,SSE,158,0.0,0.0,43,0.00,,---,0.00,VWS V14.01,2013-01-07 05:31:00,
2013-01-07 00:36:00,43.3,22.9,30.27,SSE,158,0.0,0.0,44,0.00,,---,0.00,VWS V14.01,2013-01-07 05:36:00,
2013-01-07 00:41:00,43.3,22.9,30.27,WNW,292,3.8,3.8,44,0.00,,---,0.00,VWS V14.01,2013-01-07 05:41:00,
2013-01-07 00:46:00,43.7,22.7,30.27,SSE,158,2.2,3.1,43,0.00,,---,0.00,VWS V14.01,2013-01-07 05:46:00,
2013-01-07 00:51:00,43.7,22.7,30.27,ESE,112,2.7,2.7,43,0.00,,---,0.00,VWS V14.01,2013-01-07 05:51:00,
2013-01-07 00:56:00,43.5,22.5,30.27,WNW,292,1.1,2.0,43,0.00,,---,0.00,VWS V14.01,2013-01-07 05:56:00,
2013-01-07 01:01:00,43.5,22.5,30.27,West,270,2.2,3.4,43,0.00,,---,0.00,VWS V14.01,2013-01-07 06:01:00,
2013-01-07 01:06:00,43.5,22.5,30.27,ESE,112,0.0,2.0,43,0.00,,---,0.00,VWS V14.01,2013-01-07 06:06:00,
2013-01-07 01:11:00,43.5,22.5,30.27,WSW,248,1.6,3.4,43,0.00,,---,0.00,VWS V14.01,2013-01-07 06:11:00,
2013-01-07 01:16:00,43.3,22.4,30.27,SSE,158,2.0,2.7,43,0.00,,---,0.00,VWS V14.01,2013-01-07 06:16:00,
2013-01-07 01:21:00,43.0,22.0,30.27,SE,135,0.0,0.0,43,0.00,,---,0.00,VWS V14.01,2013-01-07 06:21:00,
2013-01-07 01:26:00,42.8,21.9,30.27,ESE,112,0.0,0.0,43,0.00,,---,0.00,VWS V14.01,2013-01-07 06:26:00,
2013-01-07 01:31:00,42.6,22.2,30.27,NE,45,0.9,1.1,44,0.00,,---,0.00,VWS V14.01,2013-01-07 06:31:00,
2013-01-07 01:36:00,42.3,21.9,30.27,SSE,158,2.2,3.1,44,0.00,,---,0.00,VWS V14.01,2013-01-07 06:36:00,
2013-01-07 01:41:00,42.1,22.3,30.27,SE,135,1.6,1.6,45,0.00,,---,0.00,VWS V14.01,2013-01-07 06:41:00,
2013-01-07 01:46:00,41.0,21.3,30.27,East,90,2.5,2.5,45,0.00,,---,0.00,VWS V14.01,2013-01-07 06:46:00,
2013-01-07 01:51:00,40.6,22.0,30.27,ESE,112,0.0,0.9,47,0.00,,---,0.00,VWS V14.01,2013-01-07 06:51:00,
2013-01-07 01:56:00,40.3,22.2,30.27,SE,135,0.0,0.9,48,0.00,,---,0.00,VWS V14.01,2013-01-07 06:56:00,
2013-01-07 02:01:00,39.9,21.8,30.30,SSE,158,0.0,0.0,48,0.00,,---,0.00,VWS V14.01,2013-01-07 07:01:00,
2013-01-07 02:06:00,39.4,21.8,30.30,SSE,158,0.9,0.9,49,0.00,,---,0.00,VWS V14.01,2013-01-07 07:06:00,
2013-01-07 02:11:00,39.2,21.7,30.30,SSE,158,0.0,1.1,49,0.00,,---,0.00,VWS V14.01,2013-01-07 07:11:00,
2013-01-07 02:16:00,38.5,21.5,30.30,SSE,158,0.0,1.3,50,0.00,,---,0.00,VWS V14.01,2013-01-07 07:16:00,
2013-01-07 02:21:00,38.1,21.6,30.30,SSE,158,0.0,0.0,51,0.00,,---,0.00,VWS V14.01,2013-01-07 07:21:00,
2013-01-07 02:26:00,37.8,21.3,30.30,SSE,158,0.0,0.0,51,0.00,,---,0.00,VWS V14.01,2013-01-07 07:26:00,
2013-01-07 02:31:00,37.4,20.9,30.30,SSE,158,0.0,0.0,51,0.00,,---,0.00,VWS V14.01,2013-01-07 07:31:00,
2013-01-07 02:36:00,37.2,21.2,30.30,South,180,0.0,0.0,52,0.00,,---,0.00,VWS V14.01,2013-01-07 07:36:00,
2013-01-07 02:41:00,36.9,20.9,30.30,South,180,0.0,0.0,52,0.00,,---,0.00,VWS V14.01,2013-01-07 07:41:00,
2013-01-07 02:46:00,36.7,20.7,30.30,South,180,1.6,1.6,52,0.00,,---,0.00,VWS V14.01,2013-01-07 07:46:00,
2013-01-07 02:51:00,36.5,21.0,30.30,South,180,0.0,0.0,53,0.00,,---,0.00,VWS V14.01,2013-01-07 07:51:00,
2013-01-07 02:56:00,36.3,21.3,30.30,East,90,1.1,2.0,54,0.00,,---,0.00,VWS V14.01,2013-01-07 07:56:00,
2013-01-07 03:00:00,36.3,21.3,30.30,East,90,0.0,0.0,54,0.00,,---,0.00,VWS V14.01,2013-01-07 08:00:00,
2013-01-07 03:05:00,36.5,21.9,30.30,ESE,112,0.0,0.9,55,0.00,,---,0.00,VWS V14.01,2013-01-07 08:05:00,
2013-01-07 03:10:00,36.7,22.0,30.30,ESE,112,1.3,1.3,55,0.00,,---,0.00,VWS V14.01,2013-01-07 08:10:00,
2013-01-07 03:15:00,36.7,22.0,30.30,South,180,0.0,0.0,55,0.00,,---,0.00,VWS V14.01,2013-01-07 08:15:00,
2013-01-07 03:20:00,36.7,22.5,30.30,ESE,112,0.0,0.9,56,0.00,,---,0.00,VWS V14.01,2013-01-07 08:20:00,
2013-01-07 03:25:00,37.2,23.0,30.30,ESE,112,0.0,1.3,56,0.00,,---,0.00,VWS V14.01,2013-01-07 08:25:00,
2013-01-07 03:30:00,37.6,23.7,30.33,SSW,202,0.9,1.3,57,0.00,,---,0.00,VWS V14.01,2013-01-07 08:30:00,
2013-01-07 03:35:00,37.9,23.7,30.33,WNW,292,0.0,0.9,56,0.00,,---,0.00,VWS V14.01,2013-01-07 08:35:00,
2013-01-07 03:40:00,38.8,24.1,30.33,ENE,68,0.0,0.0,55,0.00,,---,0.00,VWS V14.01,2013-01-07 08:40:00,
2013-01-07 03:45:00,39.2,23.5,30.33,East,90,0.0,0.0,53,0.00,,---,0.00,VWS V14.01,2013-01-07 08:45:00,
2013-01-07 03:50:00,39.2,23.5,30.33,South,180,2.5,3.1,53,0.00,,---,0.00,VWS V14.01,2013-01-07 08:50:00,
2013-01-07 03:55:00,39.4,23.2,30.33,East,90,2.0,2.0,52,0.00,,---,0.00,VWS V14.01,2013-01-07 08:55:00,
2013-01-07 04:00:00,39.6,23.4,30.33,ESE,112,1.6,1.6,52,0.00,,---,0.00,VWS V14.01,2013-01-07 09:00:00,
2013-01-07 04:05:00,39.2,22.6,30.33,SSW,202,1.3,1.3,51,0.00,,---,0.00,VWS V14.01,2013-01-07 09:05:00,
2013-01-07 04:10:00,38.8,22.7,30.33,SSE,158,1.6,1.6,52,0.00,,---,0.00,VWS V14.01,2013-01-07 09:10:00,
2013-01-07 04:15:00,38.7,22.6,30.30,ESE,112,0.0,0.0,52,0.00,,---,0.00,VWS V14.01,2013-01-07 09:15:00,
2013-01-07 04:20:00,38.5,22.4,30.30,ESE,112,0.0,0.0,52,0.00,,---,0.00,VWS V14.01,2013-01-07 09:20:00,
2013-01-07 04:25:00,38.7,22.6,30.30,SE,135,0.0,0.9,52,0.00,,---,0.00,VWS V14.01,2013-01-07 09:25:00,
2013-01-07 04:30:00,38.8,22.7,30.33,ESE,112,0.0,1.6,52,0.00,,---,0.00,VWS V14.01,2013-01-07 09:30:00,
2013-01-07 04:35:00,38.7,22.6,30.33,SSE,158,0.0,0.0,52,0.00,,---,0.00,VWS V14.01,2013-01-07 09:35:00,
2013-01-07 04:40:00,38.1,22.1,30.33,ESE,112,0.0,0.0,52,0.00,,---,0.00,VWS V14.01,2013-01-07 09:40:00,
2013-01-07 04:45:00,37.8,21.7,30.36,ESE,112,0.0,0.9,52,0.00,,---,0.00,VWS V14.01,2013-01-07 09:45:00,
2013-01-07 04:50:00,37.4,21.4,30.36,ESE,112,0.0,0.0,52,0.00,,---,0.00,VWS V14.01,2013-01-07 09:50:00,
2013-01-07 04:55:00,37.0,21.5,30.36,ESE,112,0.0,0.0,53,0.00,,---,0.00,VWS V14.01,2013-01-07 09:55:00,
2013-01-07 05:00:00,36.5,21.0,30.36,ESE,112,0.0,0.0,53,0.00,,---,0.00,VWS V14.01,2013-01-07 10:00:00,
2013-01-07 05:05:00,36.1,20.7,30.36,ESE,112,0.0,0.0,53,0.00,,---,0.00,VWS V14.01,2013-01-07 10:05:00,
2013-01-07 05:10:00,35.6,20.6,30.36,ESE,112,0.0,0.0,54,0.00,,---,0.00,VWS V14.01,2013-01-07 10:10:00,
2013-01-07 05:15:00,35.4,20.9,30.39,ESE,112,0.0,0.0,55,0.00,,---,0.00,VWS V14.01,2013-01-07 10:15:00,
2013-01-07 05:20:00,35.1,20.5,30.39,ESE,112,0.0,0.0,55,0.00,,---,0.00,VWS V14.01,2013-01-07 10:20:00,
2013-01-07 05:25:00,34.9,20.8,30.39,ESE,112,0.0,0.0,56,0.00,,---,0.00,VWS V14.01,2013-01-07 10:25:00,
2013-01-07 05:30:00,34.9,21.2,30.39,ESE,112,0.0,0.0,57,0.00,,---,0.00,VWS V14.01,2013-01-07 10:30:00,
2013-01-07 05:35:00,34.5,20.9,30.39,ESE,112,0.0,0.0,57,0.00,,---,0.00,VWS V14.01,2013-01-07 10:35:00,
2013-01-07 05:40:00,34.5,20.9,30.39,ESE,112,0.0,0.0,57,0.00,,---,0.00,VWS V14.01,2013-01-07 10:40:00,
2013-01-07 05:45:00,34.3,21.1,30.39,ESE,112,0.0,0.0,58,0.00,,---,0.00,VWS V14.01,2013-01-07 10:45:00,
2013-01-07 05:50:00,34.5,21.3,30.39,ESE,112,0.0,0.0,58,0.00,,---,0.00,VWS V14.01,2013-01-07 10:50:00,
2013-01-07 05:55:00,34.5,21.7,30.39,ESE,112,0.0,0.0,59,0.00,,---,0.00,VWS V14.01,2013-01-07 10:55:00,
2013-01-07 06:00:00,34.7,22.2,30.36,ESE,112,0.0,0.0,60,0.00,,---,0.00,VWS V14.01,2013-01-07 11:00:00,
2013-01-07 06:05:00,35.1,23.0,30.36,ESE,112,0.0,0.0,61,0.00,,---,0.00,VWS V14.01,2013-01-07 11:05:00,
2013-01-07 06:10:00,35.2,23.1,30.36,ESE,112,0.0,0.0,61,0.00,,---,0.00,VWS V14.01,2013-01-07 11:10:00,
2013-01-07 06:15:00,35.4,23.3,30.39,ESE,112,0.0,0.0,61,0.00,,---,0.00,VWS V14.01,2013-01-07 11:15:00,
2013-01-07 06:20:00,35.6,23.9,30.39,ESE,112,0.0,0.0,62,0.00,,---,0.00,VWS V14.01,2013-01-07 11:20:00,
2013-01-07 06:25:00,36.1,24.8,30.39,ESE,112,0.0,0.0,63,0.00,,---,0.00,VWS V14.01,2013-01-07 11:25:00,
2013-01-07 06:30:00,36.7,25.3,30.41,ESE,112,0.0,0.0,63,0.00,,---,0.00,VWS V14.01,2013-01-07 11:30:00,
2013-01-07 06:35:00,37.0,25.2,30.41,SSE,158,0.0,0.0,62,0.00,,---,0.00,VWS V14.01,2013-01-07 11:35:00,
2013-01-07 06:40:00,37.8,25.5,30.41,ENE,68,1.3,1.3,61,0.00,,---,0.00,VWS V14.01,2013-01-07 11:40:00,
2013-01-07 06:45:00,38.3,25.2,30.41,ENE,68,1.1,1.1,59,0.00,,---,0.00,VWS V14.01,2013-01-07 11:45:00,
2013-01-07 06:50:00,38.7,24.8,30.41,ESE,112,1.1,1.6,57,0.00,,---,0.00,VWS V14.01,2013-01-07 11:50:00,
2013-01-07 06:55:00,39.2,24.4,30.41,SSE,158,2.7,2.7,55,0.00,,---,0.00,VWS V14.01,2013-01-07 11:55:00,
2013-01-07 07:00:00,39.4,23.7,30.41,SSE,158,0.0,1.1,53,0.00,,---,0.00,VWS V14.01,2013-01-07 12:00:00,
2013-01-07 07:05:00,39.0,23.4,30.41,SSE,158,1.3,1.3,53,0.00,,---,0.00,VWS V14.01,2013-01-07 12:05:00,
2013-01-07 07:10:00,38.5,22.9,30.41,SSE,158,0.0,0.0,53,0.00,,---,0.00,VWS V14.01,2013-01-07 12:10:00,
2013-01-07 07:15:00,38.1,22.5,30.41,SSE,158,1.3,1.3,53,0.00,,---,0.00,VWS V14.01,2013-01-07 12:15:00,
2013-01-07 07:20:00,37.6,22.0,30.41,SSE,158,0.0,0.0,53,0.00,,---,0.00,VWS V14.01,2013-01-07 12:20:00,
2013-01-07 07:25:00,37.2,22.1,30.41,SSE,158,0.0,0.0,54,0.00,,---,0.00,VWS V14.01,2013-01-07 12:25:00,
2013-01-07 07:30:00,36.9,21.8,30.41,SSE,158,0.0,0.0,54,0.00,,---,0.00,VWS V14.01,2013-01-07 12:30:00,
2013-01-07 07:35:00,36.5,21.9,30.41,SE,135,2.0,2.2,55,0.00,,---,0.00,VWS V14.01,2013-01-07 12:35:00,
2013-01-07 07:40:00,36.3,21.7,30.41,SE,135,0.0,0.0,55,0.00,,---,0.00,VWS V14.01,2013-01-07 12:40:00,
2013-01-07 07:45:00,36.3,22.1,30.44,SE,135,1.6,1.6,56,0.00,,---,0.00,VWS V14.01,2013-01-07 12:45:00,
2013-01-07 07:50:00,36.1,22.0,30.44,SE,135,0.0,1.1,56,0.00,,---,0.00,VWS V14.01,2013-01-07 12:50:00,
2013-01-07 07:55:00,35.8,21.6,30.44,SE,135,0.0,1.1,56,0.00,,---,0.00,VWS V14.01,2013-01-07 12:55:00,
2013-01-07 08:00:00,35.6,21.9,30.44,ESE,112,0.9,2.0,57,0.00,,---,0.00,VWS V14.01,2013-01-07 13:00:00,
2013-01-07 08:05:00,35.6,21.9,30.44,ESE,112,0.0,0.0,57,0.00,,---,0.00,VWS V14.01,2013-01-07 13:05:00,
2013-01-07 08:10:00,35.8,22.5,30.44,SE,135,0.9,1.1,58,0.00,,---,0.00,VWS V14.01,2013-01-07 13:10:00,
2013-01-07 08:15:00,36.1,23.2,30.44,SE,135,0.9,1.3,59,0.00,,---,0.00,VWS V14.01,2013-01-07 13:15:00,
2013-01-07 08:20:00,36.7,23.7,30.44,East,90,1.6,2.9,59,0.00,,---,0.00,VWS V14.01,2013-01-07 13:20:00,
2013-01-07 08:25:00,37.4,24.0,30.44,SSE,158,0.0,0.0,58,0.00,,---,0.00,VWS V14.01,2013-01-07 13:25:00,
2013-01-07 08:30:00,37.6,23.3,30.41,ESE,112,1.3,1.3,56,0.00,,---,0.00,VWS V14.01,2013-01-07 13:30:00,
2013-01-07 08:35:00,37.8,23.5,30.41,SE,135,3.1,3.1,56,0.00,,---,0.00,VWS V14.01,2013-01-07 13:35:00,
2013-01-07 08:40:00,38.1,23.4,30.41,SSE,158,0.0,0.0,55,0.00,,---,0.00,VWS V14.01,2013-01-07 13:40:00,
2013-01-07 08:45:00,38.5,23.3,30.44,East,90,0.0,0.0,54,0.00,,---,0.00,VWS V14.01,2013-01-07 13:45:00,
2013-01-07 08:50:00,38.5,23.3,30.44,East,90,0.0,1.6,54,0.00,,---,0.00,VWS V14.01,2013-01-07 13:50:00,
2013-01-07 08:55:00,38.7,23.0,30.44,SE,135,2.7,2.7,53,0.00,,---,0.00,VWS V14.01,2013-01-07 13:55:00,
2013-01-07 09:00:00,38.8,23.2,30.50,WSW,248,0.0,0.0,53,0.00,,---,0.00,VWS V14.01,2013-01-07 14:00:00,
2013-01-07 09:05:00,39.4,23.2,30.50,NNW,338,0.0,0.0,52,0.00,,---,0.00,VWS V14.01,2013-01-07 14:05:00,
2013-01-07 09:10:00,39.7,23.6,30.50,ESE,112,2.5,2.5,52,0.00,,---,0.00,VWS V14.01,2013-01-07 14:10:00,
2013-01-07 09:15:00,40.5,23.3,30.50,SSE,158,0.9,1.6,50,0.00,,---,0.00,VWS V14.01,2013-01-07 14:15:00,
2013-01-07 09:20:00,40.8,23.1,30.50,SSE,158,1.3,3.4,49,0.00,,---,0.00,VWS V14.01,2013-01-07 14:20:00,
2013-01-07 09:25:00,41.2,23.0,30.50,WSW,248,2.5,2.5,48,0.00,,---,0.00,VWS V14.01,2013-01-07 14:25:00,
2013-01-07 09:30:00,41.5,22.3,30.50,WNW,292,5.6,5.6,46,0.00,,---,0.00,VWS V14.01,2013-01-07 14:30:00,
2013-01-07 09:35:00,41.5,22.8,30.50,SW,225,5.4,7.8,47,0.00,,---,0.00,VWS V14.01,2013-01-07 14:35:00,
2013-01-07 09:40:00,42.1,22.3,30.50,West,270,2.7,2.7,45,0.00,,---,0.00,VWS V14.01,2013-01-07 14:40:00,
2013-01-07 09:45:00,42.4,22.1,30.50,East,90,2.2,3.6,44,0.00,,---,0.00,VWS V14.01,2013-01-07 14:45:00,
2013-01-07 09:50:00,42.8,21.9,30.50,WNW,292,7.8,7.8,43,0.00,,---,0.00,VWS V14.01,2013-01-07 14:50:00,
2013-01-07 09:55:00,43.0,22.0,30.50,NNW,338,2.5,4.9,43,0.00,,---,0.00,VWS V14.01,2013-01-07 14:55:00,
2013-01-07 10:00:00,43.5,22.5,30.47,SSE,158,3.8,3.8,43,0.00,,---,0.00,VWS V14.01,2013-01-07 15:00:00,
2013-01-07 10:05:00,43.7,22.1,30.47,WNW,292,3.6,3.6,42,0.00,,---,0.00,VWS V14.01,2013-01-07 15:05:00,
2013-01-07 10:10:00,43.7,21.6,30.47,SE,135,3.4,6.5,41,0.00,,---,0.00,VWS V14.01,2013-01-07 15:10:00,
2013-01-07 10:15:00,44.8,22.5,30.50,WNW,292,3.4,3.4,41,0.00,,---,0.00,VWS V14.01,2013-01-07 15:15:00,
2013-01-07 10:20:00,44.4,21.6,30.50,SE,135,3.8,4.7,40,0.00,,---,0.00,VWS V14.01,2013-01-07 15:20:00,
2013-01-07 10:25:00,44.2,22.0,30.50,SSE,158,0.9,0.9,41,0.00,,---,0.00,VWS V14.01,2013-01-07 15:25:00,
2013-01-07 10:30:00,44.4,21.6,30.50,WSW,248,3.8,7.4,40,0.00,,---,0.00,VWS V14.01,2013-01-07 15:30:00,
2013-01-07 10:35:00,44.2,21.5,30.50,NNW,338,3.4,3.4,40,0.00,,---,0.00,VWS V14.01,2013-01-07 15:35:00,
2013-01-07 10:40:00,44.4,21.6,30.50,WNW,292,2.7,2.7,40,0.00,,---,0.00,VWS V14.01,2013-01-07 15:40:00,
2013-01-07 10:45:00,44.6,21.2,30.50,NNW,338,3.8,7.6,39,0.00,,---,0.00,VWS V14.01,2013-01-07 15:45:00,
2013-01-07 10:50:00,44.6,21.2,30.50,SE,135,3.4,3.4,39,0.00,,---,0.00,VWS V14.01,2013-01-07 15:50:00,
2013-01-07 10:55:00,44.8,21.4,30.50,WSW,248,3.8,5.8,39,0.00,,---,0.00,VWS V14.01,2013-01-07 15:55:00,
2013-01-07 11:00:00,44.8,21.4,30.50,WNW,292,2.7,4.0,39,0.00,,---,0.00,VWS V14.01,2013-01-07 16:00:00,
2013-01-07 11:05:00,44.8,21.4,30.50,WNW,292,2.9,5.4,39,0.00,,---,0.00,VWS V14.01,2013-01-07 16:05:00,
2013-01-07 11:10:00,45.5,22.0,30.50,WNW,292,5.4,7.4,39,0.00,,---,0.00,VWS V14.01,2013-01-07 16:10:00,
2013-01-07 11:15:00,45.7,22.2,30.50,NW,315,7.4,9.8,39,0.00,,---,0.00,VWS V14.01,2013-01-07 16:15:00,
2013-01-07 11:20:00,45.5,22.0,30.50,ESE,112,7.2,7.2,39,0.00,,---,0.00,VWS V14.01,2013-01-07 16:20:00,
2013-01-07 11:25:00,45.9,22.3,30.50,West,270,5.4,8.5,39,0.00,,---,0.00,VWS V14.01,2013-01-07 16:25:00,
2013-01-07 11:30:00,46.0,21.9,30.50,NNW,338,4.0,4.9,38,0.00,,---,0.00,VWS V14.01,2013-01-07 16:30:00,
2013-01-07 11:35:00,45.9,22.3,30.50,SE,135,3.6,3.6,39,0.00,,---,0.00,VWS V14.01,2013-01-07 16:35:00,
2013-01-07 11:40:00,45.5,21.4,30.50,West,270,6.0,6.0,38,0.00,,---,0.00,VWS V14.01,2013-01-07 16:40:00,
2013-01-07 11:45:00,45.3,21.2,30.50,West,270,2.2,4.9,38,0.00,,---,0.00,VWS V14.01,2013-01-07 16:45:00,
2013-01-07 11:50:00,45.1,21.1,30.50,West,270,3.4,4.7,38,0.00,,---,0.00,VWS V14.01,2013-01-07 16:50:00,
2013-01-07 11:55:00,45.3,21.2,30.50,NNW,338,8.5,8.5,38,0.00,,---,0.00,VWS V14.01,2013-01-07 16:55:00,
2013-01-07 12:00:00,45.5,21.4,30.47,WNW,292,4.7,5.4,38,0.00,,---,0.00,VWS V14.01,2013-01-07 17:00:00,
2013-01-07 12:05:00,45.3,21.2,30.47,SE,135,2.0,2.7,38,0.00,,---,0.00,VWS V14.01,2013-01-07 17:05:00,
2013-01-07 12:10:00,45.3,21.2,30.47,WNW,292,5.4,5.4,38,0.00,,---,0.00,VWS V14.01,2013-01-07 17:10:00,
2013-01-07 12:15:00,45.3,21.2,30.47,ESE,112,3.6,3.6,38,0.00,,---,0.00,VWS V14.01,2013-01-07 17:15:00,
2013-01-07 12:20:00,45.3,21.2,30.47,NW,315,2.7,3.4,38,0.00,,---,0.00,VWS V14.01,2013-01-07 17:20:00,
2013-01-07 12:25:00,45.5,21.4,30.47,WNW,292,4.0,6.0,38,0.00,,---,0.00,VWS V14.01,2013-01-07 17:25:00,
2013-01-07 12:30:00,45.7,21.5,30.47,West,270,2.0,8.5,38,0.00,,---,0.00,VWS V14.01,2013-01-07 17:30:00,
2013-01-07 12:35:00,46.2,22.0,30.47,ENE,68,3.1,7.2,38,0.00,,---,0.00,VWS V14.01,2013-01-07 17:35:00,
2013-01-07 12:40:00,46.2,22.0,30.47,WNW,292,6.3,7.8,38,0.00,,---,0.00,VWS V14.01,2013-01-07 17:40:00,
2013-01-07 12:45:00,46.2,22.0,30.50,West,270,3.8,5.6,38,0.00,,---,0.00,VWS V14.01,2013-01-07 17:45:00,
2013-01-07 12:50:00,46.2,22.0,30.50,WNW,292,4.9,5.4,38,0.00,,---,0.00,VWS V14.01,2013-01-07 17:50:00,
2013-01-07 12:55:00,45.9,21.7,30.50,WNW,292,5.8,7.2,38,0.00,,---,0.00,VWS V14.01,2013-01-07 17:55:00,
2013-01-07 13:00:00,45.5,21.4,30.50,WSW,248,2.7,4.3,38,0.00,,---,0.00,VWS V14.01,2013-01-07 18:00:00,
2013-01-07 13:05:00,46.4,21.6,30.50,WNW,292,4.3,4.3,37,0.00,,---,0.00,VWS V14.01,2013-01-07 18:05:00,
2013-01-07 13:10:00,46.4,21.6,30.50,West,270,7.8,7.8,37,0.00,,---,0.00,VWS V14.01,2013-01-07 18:10:00,
2013-01-07 13:15:00,46.4,21.6,30.50,West,270,4.7,4.7,37,0.00,,---,0.00,VWS V14.01,2013-01-07 18:15:00,
2013-01-07 13:20:00,47.1,22.2,30.50,East,90,2.9,2.9,37,0.00,,---,0.00,VWS V14.01,2013-01-07 18:20:00,
2013-01-07 13:25:00,47.3,22.4,30.50,WNW,292,3.1,3.8,37,0.00,,---,0.00,VWS V14.01,2013-01-07 18:25:00,
2013-01-07 13:30:00,46.8,21.9,30.50,WNW,292,3.4,3.4,37,0.00,,---,0.00,VWS V14.01,2013-01-07 18:30:00,
2013-01-07 13:35:00,46.2,22.0,30.50,NNE,22,1.1,2.0,38,0.00,,---,0.00,VWS V14.01,2013-01-07 18:35:00,
2013-01-07 13:40:00,46.2,22.0,30.50,ENE,68,1.1,3.1,38,0.00,,---,0.00,VWS V14.01,2013-01-07 18:40:00,
2013-01-07 13:45:00,46.0,21.9,30.50,NNW,338,2.5,4.9,38,0.00,,---,0.00,VWS V14.01,2013-01-07 18:45:00,
2013-01-07 13:50:00,46.2,22.0,30.50,South,180,4.3,4.3,38,0.00,,---,0.00,VWS V14.01,2013-01-07 18:50:00,
2013-01-07 13:55:00,45.9,21.7,30.50,NW,315,6.5,6.5,38,0.00,,---,0.00,VWS V14.01,2013-01-07 18:55:00,
2013-01-07 14:00:00,45.7,21.5,30.47,WNW,292,4.3,7.6,38,0.00,,---,0.00,VWS V14.01,2013-01-07 19:00:00,
2013-01-07 14:05:00,45.5,21.4,30.47,NNW,338,3.4,5.8,38,0.00,,---,0.00,VWS V14.01,2013-01-07 19:05:00,
2013-01-07 14:10:00,45.1,21.1,30.47,NNW,338,3.1,4.7,38,0.00,,---,0.00,VWS V14.01,2013-01-07 19:10:00,
2013-01-07 14:15:00,45.0,20.9,30.47,West,270,2.5,4.9,38,0.00,,---,0.00,VWS V14.01,2013-01-07 19:15:00,
2013-01-07 14:20:00,44.8,20.7,30.47,WNW,292,4.0,4.0,38,0.00,,---,0.00,VWS V14.01,2013-01-07 19:20:00,
2013-01-07 14:25:00,44.8,20.7,30.47,WSW,248,3.1,3.1,38,0.00,,---,0.00,VWS V14.01,2013-01-07 19:25:00,
2013-01-07 14:30:00,44.8,20.7,30.47,NW,315,6.5,7.4,38,0.00,,---,0.00,VWS V14.01,2013-01-07 19:30:00,
2013-01-07 14:35:00,44.8,20.7,30.47,West,270,3.4,3.6,38,0.00,,---,0.00,VWS V14.01,2013-01-07 19:35:00,
2013-01-07 14:40:00,44.6,20.6,30.47,NNW,338,1.6,2.2,38,0.00,,---,0.00,VWS V14.01,2013-01-07 19:40:00,
2013-01-07 14:45:00,44.6,20.6,30.50,WNW,292,3.6,4.9,38,0.00,,---,0.00,VWS V14.01,2013-01-07 19:45:00,
2013-01-07 14:50:00,44.6,20.6,30.50,West,270,4.0,5.4,38,0.00,,---,0.00,VWS V14.01,2013-01-07 19:50:00,
2013-01-07 14:55:00,44.6,20.6,30.50,NW,315,2.5,2.9,38,0.00,,---,0.00,VWS V14.01,2013-01-07 19:55:00,
2013-01-07 15:00:00,44.4,20.4,30.50,WNW,292,4.3,4.3,38,0.00,,---,0.00,VWS V14.01,2013-01-07 20:00:00,
2013-01-07 15:05:00,44.6,20.6,30.50,WNW,292,3.1,3.1,38,0.00,,---,0.00,VWS V14.01,2013-01-07 20:05:00,
2013-01-07 15:10:00,44.4,21.0,30.50,WNW,292,4.0,4.3,39,0.00,,---,0.00,VWS V14.01,2013-01-07 20:10:00,
2013-01-07 15:15:00,44.2,20.9,30.50,NW,315,4.3,4.3,39,0.00,,---,0.00,VWS V14.01,2013-01-07 20:15:00,
2013-01-07 15:19:00,44.2,20.3,30.50,NNE,22,3.6,5.8,38,0.00,,---,0.00,VWS V14.01,2013-01-07 20:19:00,
2013-01-07 15:24:00,44.2,20.3,30.50,SE,135,2.2,2.2,38,0.00,,---,0.00,VWS V14.01,2013-01-07 20:24:00,
2013-01-07 15:29:00,44.2,20.9,30.50,WSW,248,5.6,5.6,39,0.00,,---,0.00,VWS V14.01,2013-01-07 20:29:00,
2013-01-07 15:34:00,44.1,20.7,30.50,WNW,292,3.4,3.4,39,0.00,,---,0.00,VWS V14.01,2013-01-07 20:34:00,
2013-01-07 15:39:00,44.2,20.3,30.50,SW,225,4.3,6.3,38,0.00,,---,0.00,VWS V14.01,2013-01-07 20:39:00,
2013-01-07 15:44:00,44.1,20.7,30.50,NNW,338,1.6,4.3,39,0.00,,---,0.00,VWS V14.01,2013-01-07 20:44:00,
2013-01-07 15:49:00,43.9,20.5,30.50,NE,45,1.3,3.4,39,0.00,,---,0.00,VWS V14.01,2013-01-07 20:49:00,
2013-01-07 15:54:00,43.7,20.4,30.50,NNW,338,1.3,2.9,39,0.00,,---,0.00,VWS V14.01,2013-01-07 20:54:00,
2013-01-07 15:59:00,43.7,20.4,30.50,WNW,292,3.4,3.4,39,0.00,,---,0.00,VWS V14.01,2013-01-07 20:59:00,
2013-01-07 16:04:00,43.5,20.2,30.53,SW,225,3.4,3.4,39,0.00,,---,0.00,VWS V14.01,2013-01-07 21:04:00,
2013-01-07 16:09:00,43.5,20.2,30.53,WNW,292,1.1,1.1,39,0.00,,---,0.00,VWS V14.01,2013-01-07 21:09:00,
2013-01-07 16:14:00,43.2,19.9,30.53,WNW,292,1.6,2.0,39,0.00,,---,0.00,VWS V14.01,2013-01-07 21:14:00,
2013-01-07 16:19:00,43.0,19.7,30.53,NNW,338,2.7,2.7,39,0.00,,---,0.00,VWS V14.01,2013-01-07 21:19:00,
2013-01-07 16:24:00,42.8,19.6,30.53,NNE,22,1.6,3.1,39,0.00,,---,0.00,VWS V14.01,2013-01-07 21:24:00,
2013-01-07 16:29:00,42.8,19.6,30.53,NW,315,2.5,2.5,39,0.00,,---,0.00,VWS V14.01,2013-01-07 21:29:00,
2013-01-07 16:34:00,42.4,19.8,30.53,WNW,292,2.5,2.5,40,0.00,,---,0.00,VWS V14.01,2013-01-07 21:34:00,
2013-01-07 16:39:00,42.4,19.8,30.53,ENE,68,1.1,2.5,40,0.00,,---,0.00,VWS V14.01,2013-01-07 21:39:00,
2013-01-07 16:44:00,42.1,19.5,30.53,WSW,248,0.0,2.9,40,0.00,,---,0.00,VWS V14.01,2013-01-07 21:44:00,
2013-01-07 16:49:00,41.9,19.4,30.53,NE,45,2.0,2.0,40,0.00,,---,0.00,VWS V14.01,2013-01-07 21:49:00,
2013-01-07 16:54:00,41.5,19.0,30.53,WNW,292,0.0,1.3,40,0.00,,---,0.00,VWS V14.01,2013-01-07 21:54:00,
2013-01-07 16:59:00,41.0,18.5,30.53,ESE,112,0.0,0.0,40,0.00,,---,0.00,VWS V14.01,2013-01-07 21:59:00,
2013-01-07 17:04:00,40.3,18.5,30.53,ESE,112,0.0,0.0,41,0.00,,---,0.00,VWS V14.01,2013-01-07 22:04:00,
2013-01-07 17:09:00,39.6,17.8,30.53,ESE,112,0.0,0.0,41,0.00,,---,0.00,VWS V14.01,2013-01-07 22:09:00,
2013-01-07 17:14:00,39.0,17.9,30.53,ESE,112,0.0,0.0,42,0.00,,---,0.00,VWS V14.01,2013-01-07 22:14:00,
2013-01-07 17:19:00,38.8,17.7,30.53,ESE,112,0.0,0.0,42,0.00,,---,0.00,VWS V14.01,2013-01-07 22:19:00,
2013-01-07 17:24:00,37.8,17.3,30.53,ESE,112,0.0,0.0,43,0.00,,---,0.00,VWS V14.01,2013-01-07 22:24:00,
2013-01-07 17:29:00,37.0,17.2,30.53,ESE,112,0.0,0.0,44,0.00,,---,0.00,VWS V14.01,2013-01-07 22:29:00,
2013-01-07 17:34:00,36.5,16.7,30.53,ESE,112,0.0,0.0,44,0.00,,---,0.00,VWS V14.01,2013-01-07 22:34:00,
2013-01-07 17:39:00,35.8,16.5,30.53,ESE,112,0.0,0.0,45,0.00,,---,0.00,VWS V14.01,2013-01-07 22:39:00,
2013-01-07 17:44:00,35.6,16.9,30.53,ESE,112,0.0,0.0,46,0.00,,---,0.00,VWS V14.01,2013-01-07 22:44:00,
2013-01-07 17:49:00,35.1,16.4,30.56,ESE,112,0.0,0.0,46,0.00,,---,0.00,VWS V14.01,2013-01-07 22:49:00,
2013-01-07 17:54:00,34.9,16.7,30.56,ESE,112,0.0,0.0,47,0.00,,---,0.00,VWS V14.01,2013-01-07 22:54:00,
2013-01-07 17:59:00,34.5,16.9,30.56,ESE,112,0.0,0.0,48,0.00,,---,0.00,VWS V14.01,2013-01-07 22:59:00,
2013-01-07 18:04:00,34.3,16.7,30.53,ESE,112,0.0,0.0,48,0.00,,---,0.00,VWS V14.01,2013-01-07 23:04:00,
2013-01-07 18:09:00,34.0,16.8,30.53,ESE,112,0.0,0.0,49,0.00,,---,0.00,VWS V14.01,2013-01-07 23:09:00,
2013-01-07 18:14:00,33.8,17.1,30.53,ESE,112,0.0,0.0,50,0.00,,---,0.00,VWS V14.01,2013-01-07 23:14:00,
2013-01-07 18:19:00,33.8,17.1,30.53,ESE,112,0.0,0.0,50,0.00,,---,0.00,VWS V14.01,2013-01-07 23:19:00,
2013-01-07 18:24:00,33.3,17.1,30.53,ESE,112,0.0,0.0,51,0.00,,---,0.00,VWS V14.01,2013-01-07 23:24:00,
2013-01-07 18:29:00,33.1,16.9,30.53,ESE,112,0.0,0.0,51,0.00,,---,0.00,VWS V14.01,2013-01-07 23:29:00,
2013-01-07 18:34:00,32.7,17.0,30.56,ESE,112,0.0,0.0,52,0.00,,---,0.00,VWS V14.01,2013-01-07 23:34:00,
2013-01-07 18:39:00,32.5,16.9,30.56,ESE,112,0.0,0.0,52,0.00,,---,0.00,VWS V14.01,2013-01-07 23:39:00,
2013-01-07 18:44:00,32.2,16.5,30.56,ESE,112,0.0,0.0,52,0.00,,---,0.00,VWS V14.01,2013-01-07 23:44:00,
2013-01-07 18:49:00,31.8,16.2,30.56,ESE,112,0.0,0.0,52,0.00,,---,0.00,VWS V14.01,2013-01-07 23:49:00,
2013-01-07 18:54:00,31.6,16.5,30.56,ESE,112,0.0,0.0,53,0.00,,---,0.00,VWS V14.01,2013-01-07 23:54:00,
2013-01-07 18:59:00,31.3,16.1,30.56,ESE,112,0.0,0.0,53,0.00,,---,0.00,VWS V14.01,2013-01-07 23:59:00,
2013-01-07 19:04:00,31.1,16.0,30.56,ESE,112,0.0,0.0,53,0.00,,---,0.00,VWS V14.01,2013-01-08 00:04:00,
2013-01-07 19:09:00,30.9,16.2,30.56,ESE,112,0.0,0.0,54,0.00,,---,0.00,VWS V14.01,2013-01-08 00:09:00,
2013-01-07 19:14:00,30.7,16.1,30.56,ESE,112,0.0,0.0,54,0.00,,---,0.00,VWS V14.01,2013-01-08 00:14:00,
2013-01-07 19:19:00,30.6,15.9,30.56,ESE,112,0.0,0.0,54,0.00,,---,0.00,VWS V14.01,2013-01-08 00:19:00,
2013-01-07 19:24:00,30.4,15.7,30.56,ESE,112,0.0,0.0,54,0.00,,---,0.00,VWS V14.01,2013-01-08 00:24:00,
2013-01-07 19:29:00,30.2,16.0,30.56,ESE,112,0.0,0.0,55,0.00,,---,0.00,VWS V14.01,2013-01-08 00:29:00,
2013-01-07 19:34:00,30.2,16.4,30.53,ESE,112,0.0,0.0,56,0.00,,---,0.00,VWS V14.01,2013-01-08 00:34:00,
2013-01-07 19:39:00,30.0,16.2,30.53,ESE,112,0.0,0.0,56,0.00,,---,0.00,VWS V14.01,2013-01-08 00:39:00,
2013-01-07 19:44:00,29.8,16.1,30.53,ESE,112,0.0,0.0,56,0.00,,---,0.00,VWS V14.01,2013-01-08 00:44:00,
2013-01-07 19:49:00,29.7,15.9,30.56,ESE,112,0.0,0.0,56,0.00,,---,0.00,VWS V14.01,2013-01-08 00:49:00,
2013-01-07 19:54:00,29.5,16.1,30.56,ESE,112,0.0,0.0,57,0.00,,---,0.00,VWS V14.01,2013-01-08 00:54:00,
2013-01-07 19:59:00,29.5,16.1,30.56,ESE,112,0.0,0.0,57,0.00,,---,0.00,VWS V14.01,2013-01-08 00:59:00,
2013-01-07 20:04:00,29.3,16.0,30.53,ESE,112,0.0,0.0,57,0.00,,---,0.00,VWS V14.01,2013-01-08 01:04:00,
2013-01-07 20:09:00,29.1,15.8,30.53,ESE,112,0.0,0.0,57,0.00,,---,0.00,VWS V14.01,2013-01-08 01:09:00,
2013-01-07 20:14:00,28.9,15.6,30.53,ESE,112,0.0,0.0,57,0.00,,---,0.00,VWS V14.01,2013-01-08 01:14:00,
2013-01-07 20:19:00,28.8,15.9,30.53,ESE,112,0.0,0.0,58,0.00,,---,0.00,VWS V14.01,2013-01-08 01:19:00,
2013-01-07 20:24:00,28.6,15.7,30.53,ESE,112,0.0,0.0,58,0.00,,---,0.00,VWS V14.01,2013-01-08 01:24:00,
2013-01-07 20:29:00,28.6,15.7,30.53,ESE,112,0.0,0.0,58,0.00,,---,0.00,VWS V14.01,2013-01-08 01:29:00,
2013-01-07 20:34:00,28.6,16.1,30.53,ESE,112,0.0,0.0,59,0.00,,---,0.00,VWS V14.01,2013-01-08 01:34:00,
2013-01-07 20:39:00,28.4,15.9,30.53,ESE,112,0.0,0.0,59,0.00,,---,0.00,VWS V14.01,2013-01-08 01:39:00,
2013-01-07 20:44:00,28.2,15.8,30.53,ESE,112,0.0,0.0,59,0.00,,---,0.00,VWS V14.01,2013-01-08 01:44:00,
2013-01-07 20:49:00,28.4,16.3,30.53,ESE,112,0.0,0.0,60,0.00,,---,0.00,VWS V14.01,2013-01-08 01:49:00,
2013-01-07 20:54:00,28.6,16.5,30.53,SSE,158,0.0,0.0,60,0.00,,---,0.00,VWS V14.01,2013-01-08 01:54:00,
2013-01-07 20:59:00,28.4,16.3,30.53,SSE,158,0.0,0.0,60,0.00,,---,0.00,VWS V14.01,2013-01-08 01:59:00,
2013-01-07 21:04:00,28.2,16.1,30.56,SSE,158,0.0,0.0,60,0.00,,---,0.00,VWS V14.01,2013-01-08 02:04:00,
2013-01-07 21:09:00,28.0,16.0,30.56,SSE,158,0.0,0.0,60,0.00,,---,0.00,VWS V14.01,2013-01-08 02:09:00,
2013-01-07 21:14:00,27.9,16.2,30.56,SSE,158,0.0,0.0,61,0.00,,---,0.00,VWS V14.01,2013-01-08 02:14:00,
2013-01-07 21:19:00,27.9,16.2,30.53,SSE,158,0.0,0.0,61,0.00,,---,0.00,VWS V14.01,2013-01-08 02:19:00,
2013-01-07 21:24:00,27.9,16.5,30.53,SSE,158,0.0,0.0,62,0.00,,---,0.00,VWS V14.01,2013-01-08 02:24:00,
2013-01-07 21:29:00,27.7,16.4,30.53,SSE,158,0.0,0.0,62,0.00,,---,0.00,VWS V14.01,2013-01-08 02:29:00,
2013-01-07 21:34:00,27.9,16.5,30.53,SSE,158,0.0,0.0,62,0.00,,---,0.00,VWS V14.01,2013-01-08 02:34:00,
2013-01-07 21:39:00,27.7,16.4,30.53,SSE,158,0.0,0.0,62,0.00,,---,0.00,VWS V14.01,2013-01-08 02:39:00,
2013-01-07 21:44:00,27.9,16.5,30.53,SSE,158,0.0,0.0,62,0.00,,---,0.00,VWS V14.01,2013-01-08 02:44:00,
2013-01-07 21:49:00,27.7,16.4,30.53,SSE,158,0.0,0.0,62,0.00,,---,0.00,VWS V14.01,2013-01-08 02:49:00,
2013-01-07 21:54:00,27.7,16.7,30.53,SSE,158,0.0,0.0,63,0.00,,---,0.00,VWS V14.01,2013-01-08 02:54:00,
2013-01-07 21:59:00,27.5,16.6,30.53,SSE,158,0.0,0.0,63,0.00,,---,0.00,VWS V14.01,2013-01-08 02:59:00,
2013-01-07 22:04:00,27.3,16.4,30.56,SSE,158,0.0,0.0,63,0.00,,---,0.00,VWS V14.01,2013-01-08 03:04:00,
2013-01-07 22:09:00,27.1,16.6,30.56,SSE,158,0.0,0.0,64,0.00,,---,0.00,VWS V14.01,2013-01-08 03:09:00,
2013-01-07 22:14:00,27.1,16.6,30.56,SSE,158,0.0,0.0,64,0.00,,---,0.00,VWS V14.01,2013-01-08 03:14:00,
2013-01-07 22:19:00,27.1,16.6,30.53,SSE,158,0.0,0.0,64,0.00,,---,0.00,VWS V14.01,2013-01-08 03:19:00,
2013-01-07 22:24:00,27.0,16.8,30.53,SSE,158,0.0,0.0,65,0.00,,---,0.00,VWS V14.01,2013-01-08 03:24:00,
2013-01-07 22:29:00,27.0,16.8,30.53,SSE,158,0.0,0.0,65,0.00,,---,0.00,VWS V14.01,2013-01-08 03:29:00,
2013-01-07 22:34:00,26.8,16.6,30.53,SSE,158,0.0,0.0,65,0.00,,---,0.00,VWS V14.01,2013-01-08 03:34:00,
2013-01-07 22:39:00,26.8,17.0,30.53,SSE,158,0.0,0.0,66,0.00,,---,0.00,VWS V14.01,2013-01-08 03:39:00,
2013-01-07 22:44:00,26.8,17.0,30.53,SSE,158,0.0,0.0,66,0.00,,---,0.00,VWS V14.01,2013-01-08 03:44:00,
2013-01-07 22:49:00,26.6,17.1,30.53,SSE,158,0.0,0.0,67,0.00,,---,0.00,VWS V14.01,2013-01-08 03:49:00,
2013-01-07 22:54:00,26.4,17.0,30.53,SSE,158,0.0,0.0,67,0.00,,---,0.00,VWS V14.01,2013-01-08 03:54:00,
2013-01-07 22:59:00,26.4,17.0,30.53,SSE,158,0.0,0.0,67,0.00,,---,0.00,VWS V14.01,2013-01-08 03:59:00,
2013-01-07 23:03:00,26.2,16.8,30.53,SSE,158,0.0,0.0,67,0.00,,---,0.00,VWS V14.01,2013-01-08 04:03:00,
2013-01-07 23:08:00,26.2,17.1,30.53,SSE,158,0.0,0.0,68,0.00,,---,0.00,VWS V14.01,2013-01-08 04:08:00,
2013-01-07 23:13:00,26.2,17.1,30.53,SSE,158,0.0,0.0,68,0.00,,---,0.00,VWS V14.01,2013-01-08 04:13:00,
2013-01-07 23:18:00,26.2,17.5,30.53,SSE,158,0.0,0.0,69,0.00,,---,0.00,VWS V14.01,2013-01-08 04:18:00,
2013-01-07 23:23:00,26.2,17.5,30.53,SSE,158,0.0,0.0,69,0.00,,---,0.00,VWS V14.01,2013-01-08 04:23:00,
2013-01-07 23:28:00,26.2,17.5,30.53,SSE,158,0.0,0.0,69,0.00,,---,0.00,VWS V14.01,2013-01-08 04:28:00,
2013-01-07 23:33:00,26.1,17.3,30.53,SSE,158,0.0,0.0,69,0.00,,---,0.00,VWS V14.01,2013-01-08 04:33:00,
2013-01-07 23:38:00,26.1,17.3,30.53,SSE,158,0.0,0.0,69,0.00,,---,0.00,VWS V14.01,2013-01-08 04:38:00,
2013-01-07 23:43:00,26.1,17.6,30.53,SSE,158,0.0,0.0,70,0.00,,---,0.00,VWS V14.01,2013-01-08 04:43:00,
2013-01-07 23:48:00,26.1,18.0,30.53,SSE,158,0.0,0.0,71,0.00,,---,0.00,VWS V14.01,2013-01-08 04:48:00,
2013-01-07 23:53:00,26.1,17.6,30.53,SSE,158,0.0,0.0,70,0.00,,---,0.00,VWS V14.01,2013-01-08 04:53:00,
2013-01-07 23:58:00,26.1,18.0,30.53,SSE,158,0.0,0.0,71,0.00,,---,0.00,VWS V14.01,2013-01-08 04:58:00,